createdAt,value
2019-01-12T00:02:26.854Z,79.42
2019-01-12T00:04:59.283Z,79.54
2019-01-12T00:07:30.132Z,79.63
2019-01-12T00:10:01.037Z,79.83
2019-01-12T00:12:33.357Z,79.99
2019-01-12T00:15:06.581Z,79.69
2019-01-12T00:17:38.703Z,79.69
2019-01-12T00:20:11.079Z,80.02
2019-01-12T00:22:43.381Z,80.21
2019-01-12T00:25:14.532Z,80.24
2019-01-12T00:27:46.929Z,80.88
2019-01-12T00:30:19.135Z,80.88
2019-01-12T00:32:50.060Z,80.88
2019-01-12T00:35:22.361Z,81.02
2019-01-12T00:37:53.990Z,81.20
2019-01-12T00:40:26.361Z,81.13
2019-01-12T00:42:57.553Z,80.81
2019-01-12T00:45:30.374Z,80.52
2019-01-12T00:48:01.558Z,80.35
2019-01-12T00:50:34.145Z,80.19
2019-01-12T00:53:06.699Z,79.98
2019-01-12T00:55:39.375Z,79.98
2019-01-12T00:58:11.747Z,80.11
2019-01-12T01:00:44.282Z,79.87
2019-01-12T01:03:15.406Z,79.78
2019-01-12T01:05:47.953Z,79.66
2019-01-12T01:08:20.668Z,79.73
2019-01-12T01:10:53.295Z,79.50
2019-01-12T01:13:24.571Z,79.54
2019-01-12T01:15:57.273Z,78.89
2019-01-12T01:18:27.867Z,78.89
2019-01-12T01:21:01.376Z,78.86
2019-01-12T01:23:33.883Z,78.57
2019-01-12T01:26:14.311Z,78.03
2019-01-12T01:28:46.685Z,78.03
2019-01-12T01:31:19.314Z,77.81
2019-01-12T01:33:51.280Z,77.62
2019-01-12T01:36:23.990Z,77.49
2019-01-12T01:38:56.329Z,77.55
2019-01-12T01:41:27.451Z,77.66
2019-01-12T01:44:00.356Z,77.49
2019-01-12T01:46:33.124Z,77.49
2019-01-12T01:49:05.686Z,77.40
2019-01-12T01:51:39.526Z,77.56
2019-01-12T01:54:12.291Z,77.62
2019-01-12T01:56:43.083Z,77.69
2019-01-12T01:59:15.333Z,77.64
2019-01-12T02:01:47.895Z,77.65
2019-01-12T02:04:21.277Z,77.51
2019-01-12T02:06:53.294Z,77.46
2019-01-12T02:09:24.358Z,77.41
2019-01-12T02:11:55.283Z,77.30
2019-01-12T02:14:27.697Z,77.29
2019-01-12T02:17:00.296Z,77.28
2019-01-12T02:19:32.603Z,77.17
2019-01-12T02:22:05.290Z,77.03
2019-01-12T02:24:36.440Z,76.84
2019-01-12T02:27:08.767Z,76.76
2019-01-12T02:29:41.299Z,76.76
2019-01-12T02:32:13.630Z,76.80
2019-01-12T02:34:46.147Z,76.80
2019-01-12T02:37:17.269Z,76.97
2019-01-12T02:39:49.034Z,77.20
2019-01-12T02:42:21.391Z,77.43
2019-01-12T02:44:53.622Z,77.57
2019-01-12T02:47:25.947Z,77.78
2019-01-12T02:49:59.287Z,78.08
2019-01-12T02:52:31.575Z,78.57
2019-01-12T02:55:09.053Z,78.82
2019-01-12T02:57:38.278Z,78.86
2019-01-12T03:00:15.553Z,79.08
2019-01-12T03:02:48.298Z,79.35
2019-01-12T03:05:20.514Z,79.35
2019-01-12T03:07:53.045Z,79.34
2019-01-12T03:10:26.762Z,79.31
2019-01-12T03:12:59.371Z,79.58
2019-01-12T03:15:31.780Z,80.02
2019-01-12T03:18:04.349Z,80.02
2019-01-12T03:20:36.310Z,80.15
2019-01-12T03:23:08.695Z,80.54
2019-01-12T03:25:41.292Z,80.54
2019-01-12T03:28:12.340Z,80.89
2019-01-12T03:30:43.023Z,81.01
2019-01-12T03:33:16.360Z,81.05
2019-01-12T03:35:47.385Z,81.12
2019-01-12T03:38:19.638Z,81.11
2019-01-12T03:40:52.288Z,81.22
2019-01-12T03:43:23.288Z,81.22
2019-01-12T03:45:56.282Z,81.24
2019-01-12T03:48:27.413Z,81.24
2019-01-12T03:50:59.709Z,80.87
2019-01-12T03:53:32.327Z,80.15
2019-01-12T03:56:04.697Z,80.15
2019-01-12T03:58:36.964Z,80.09
2019-01-12T04:01:15.256Z,80.02
2019-01-12T04:03:46.295Z,80.24
2019-01-12T04:06:18.052Z,80.66
2019-01-12T04:08:50.440Z,81.02
2019-01-12T04:11:22.759Z,81.04
2019-01-12T04:13:55.283Z,81.04
2019-01-12T04:16:26.348Z,80.93
2019-01-12T04:18:58.771Z,80.90
2019-01-12T04:21:31.296Z,80.94
2019-01-12T04:24:02.028Z,80.95
2019-01-12T04:26:34.325Z,80.83
2019-01-12T04:29:06.654Z,80.88
2019-01-12T04:31:40.597Z,80.97
2019-01-12T04:34:12.901Z,81.11
2019-01-12T04:36:46.281Z,81.05
2019-01-12T04:39:17.284Z,80.96
2019-01-12T04:41:48.278Z,80.91
2019-01-12T04:44:19.374Z,80.69
2019-01-12T04:46:51.735Z,80.61
2019-01-12T04:49:53.954Z,80.57
2019-01-12T04:52:27.335Z,80.72
2019-01-12T04:54:59.564Z,80.75
2019-01-12T04:57:31.956Z,80.74
2019-01-12T05:00:07.708Z,80.58
2019-01-12T05:02:40.285Z,80.53
2019-01-12T05:05:11.410Z,80.12
2019-01-12T05:07:43.774Z,79.81
2019-01-12T05:10:16.733Z,79.81
2019-01-12T05:12:49.298Z,80.20
2019-01-12T05:15:20.633Z,80.21
2019-01-12T05:17:52.806Z,80.27
2019-01-12T05:20:26.286Z,80.27
2019-01-12T05:22:58.350Z,80.09
2019-01-12T05:25:29.290Z,79.90
2019-01-12T05:28:02.074Z,79.98
2019-01-12T05:30:33.299Z,80.00
2019-01-12T05:33:04.296Z,79.95
2019-01-12T05:35:35.290Z,80.03
2019-01-12T05:38:06.416Z,80.01
2019-01-12T05:40:38.879Z,79.57
2019-01-12T05:43:11.283Z,79.57
2019-01-12T05:45:41.798Z,79.65
2019-01-12T05:48:14.316Z,79.56
2019-01-12T05:50:46.660Z,79.52
2019-01-12T05:53:19.306Z,79.51
2019-01-12T05:55:57.012Z,79.36
2019-01-12T05:58:24.334Z,79.21
2019-01-12T06:00:56.419Z,79.15
2019-01-12T06:03:28.764Z,78.90
2019-01-12T06:06:01.285Z,78.90
2019-01-12T06:08:32.120Z,78.58
2019-01-12T06:11:04.348Z,78.27
2019-01-12T06:13:35.111Z,77.99
2019-01-12T06:16:07.657Z,77.92
2019-01-12T06:18:40.020Z,77.61
2019-01-12T06:21:12.287Z,77.42
2019-01-12T06:23:43.278Z,77.47
2019-01-12T06:26:14.411Z,77.70
2019-01-12T06:28:46.704Z,77.89
2019-01-12T06:31:19.144Z,77.89
2019-01-12T06:33:54.302Z,78.15
2019-01-12T06:36:25.288Z,78.05
2019-01-12T06:38:56.283Z,78.28
2019-01-12T06:41:27.359Z,78.60
2019-01-12T06:43:58.422Z,78.59
2019-01-12T06:46:30.755Z,78.68
2019-01-12T06:49:03.293Z,78.61
2019-01-12T06:51:34.363Z,78.43
2019-01-12T06:54:05.281Z,78.81
2019-01-12T06:56:36.056Z,78.93
2019-01-12T06:59:08.357Z,78.96
2019-01-12T07:01:41.913Z,78.96
2019-01-12T07:04:14.282Z,79.11
2019-01-12T07:06:47.096Z,79.32
2019-01-12T07:09:19.298Z,79.56
2019-01-12T07:11:50.057Z,79.58
2019-01-12T07:14:22.326Z,79.50
2019-01-12T07:16:54.725Z,79.60
2019-01-12T07:19:26.878Z,79.56
2019-01-12T07:21:59.295Z,79.36
2019-01-12T07:24:30.283Z,79.18
2019-01-12T07:27:01.035Z,79.02
2019-01-12T07:29:33.345Z,78.89
2019-01-12T07:32:03.866Z,78.59
2019-01-12T07:34:38.150Z,78.49
2019-01-12T07:37:09.486Z,78.51
2019-01-12T07:39:41.638Z,78.56
2019-01-12T07:42:14.091Z,78.56
2019-01-12T07:44:46.343Z,78.51
2019-01-12T07:47:18.350Z,78.62
2019-01-12T07:49:50.627Z,78.77
2019-01-12T07:52:23.121Z,78.92
2019-01-12T07:54:54.287Z,78.99
2019-01-12T07:57:26.759Z,78.93
2019-01-12T07:59:59.280Z,78.88
2019-01-12T08:02:29.871Z,78.72
2019-01-12T08:05:02.801Z,78.49
2019-01-12T08:07:35.358Z,78.54
2019-01-12T08:10:08.456Z,78.78
2019-01-12T08:12:40.688Z,79.09
2019-01-12T08:15:13.565Z,79.09
2019-01-12T08:17:45.869Z,79.18
2019-01-12T08:20:18.660Z,79.22
2019-01-12T08:22:51.130Z,79.73
2019-01-12T08:25:22.006Z,79.75
2019-01-12T08:27:54.315Z,79.89
2019-01-12T08:30:25.279Z,79.81
2019-01-12T08:32:56.287Z,79.96
2019-01-12T08:35:27.275Z,79.82
2019-01-12T08:37:59.283Z,79.64
2019-01-12T08:40:30.085Z,79.39
2019-01-12T08:43:02.748Z,79.06
2019-01-12T08:45:35.274Z,78.89
2019-01-12T08:48:06.421Z,78.71
2019-01-12T08:50:38.640Z,78.33
2019-01-12T08:53:11.125Z,78.33
2019-01-12T08:55:42.285Z,78.69
2019-01-12T08:58:13.285Z,78.92
2019-01-12T09:00:44.279Z,79.40
2019-01-12T09:03:14.865Z,79.77
2019-01-12T09:05:47.276Z,79.83
2019-01-12T09:08:19.346Z,79.93
2019-01-12T09:10:51.645Z,79.83
2019-01-12T09:13:24.283Z,80.05
2019-01-12T09:15:55.023Z,80.38
2019-01-12T09:18:27.282Z,80.31
2019-01-12T09:20:58.112Z,80.48
2019-01-12T09:23:30.580Z,80.49
2019-01-12T09:26:03.269Z,80.69
2019-01-12T09:28:34.020Z,80.51
2019-01-12T09:31:06.582Z,80.16
2019-01-12T09:33:38.888Z,80.05
2019-01-12T09:36:12.274Z,79.50
2019-01-12T09:38:43.275Z,79.24
2019-01-12T09:42:45.268Z,79.05
2019-01-12T09:45:17.000Z,78.58
2019-01-12T09:47:50.280Z,78.25
2019-01-12T09:50:22.272Z,77.91
2019-01-12T09:52:53.283Z,77.72
2019-01-12T10:06:17.862Z,78.59
2019-01-12T10:08:50.273Z,78.59
2019-01-12T10:11:22.273Z,78.67
2019-01-12T10:13:54.283Z,78.67
2019-01-12T10:16:25.273Z,78.55
2019-01-12T10:18:56.387Z,78.37
2019-01-12T10:21:28.638Z,78.04
2019-01-12T10:24:55.945Z,77.89
2019-01-12T10:27:28.320Z,77.89
2019-01-12T10:30:00.280Z,77.68
2019-01-12T10:32:30.868Z,77.43
2019-01-12T10:35:03.096Z,77.58
2019-01-12T10:37:35.365Z,77.47
2019-01-12T10:40:09.279Z,77.32
2019-01-12T10:42:40.011Z,77.02
2019-01-12T10:45:15.304Z,76.73
2019-01-12T10:47:48.920Z,76.30
2019-01-12T10:50:27.675Z,75.83
2019-01-12T10:52:59.943Z,75.42
2019-01-12T10:55:32.250Z,74.84
2019-01-12T10:58:04.617Z,74.36
2019-01-12T11:00:39.643Z,73.66
2019-01-12T11:03:11.968Z,73.12
2019-01-12T11:05:44.435Z,72.84
2019-01-12T11:08:16.632Z,72.48
2019-01-12T11:10:48.865Z,72.48
2019-01-12T11:13:20.942Z,72.62
2019-01-12T11:15:53.018Z,72.71
2019-01-12T11:18:25.281Z,72.62
2019-01-12T11:20:55.799Z,72.62
2019-01-12T11:23:27.976Z,73.03
2019-01-12T11:26:00.266Z,73.03
2019-01-12T11:28:30.980Z,72.87
2019-01-12T11:31:03.264Z,72.75
2019-01-12T11:33:33.675Z,72.78
2019-01-12T11:36:06.058Z,72.87
2019-01-12T11:38:38.280Z,72.94
2019-01-12T11:41:10.063Z,73.11
2019-01-12T11:43:40.858Z,73.26
2019-01-12T11:46:13.067Z,73.38
2019-01-12T11:48:45.257Z,72.94
2019-01-12T11:51:16.355Z,72.73
2019-01-12T11:53:48.293Z,72.46
2019-01-12T11:56:20.272Z,72.95
2019-01-12T11:58:51.027Z,72.71
2019-01-12T12:01:23.277Z,72.50
2019-01-12T12:03:53.698Z,72.00
2019-01-12T12:06:26.081Z,70.83
2019-01-12T12:08:58.722Z,71.31
2019-01-12T12:11:30.865Z,71.95
2019-01-12T12:14:02.940Z,72.24
2019-01-12T12:16:35.123Z,73.01
2019-01-12T12:19:05.872Z,73.06
2019-01-12T12:21:37.913Z,73.17
2019-01-12T12:24:10.274Z,72.78
2019-01-12T12:26:41.033Z,72.47
2019-01-12T12:29:13.281Z,73.23
2019-01-12T12:31:44.031Z,73.56
2019-01-12T12:34:16.176Z,73.61
2019-01-12T12:36:49.523Z,73.74
2019-01-12T12:39:22.250Z,73.99
2019-01-12T12:41:52.859Z,74.02
2019-01-12T12:44:24.901Z,74.21
2019-01-12T12:46:56.988Z,74.31
2019-01-12T12:49:29.256Z,74.52
2019-01-12T12:52:00.041Z,74.40
2019-01-12T12:54:32.279Z,74.02
2019-01-12T12:57:04.273Z,74.08
2019-01-12T12:59:35.035Z,74.19
2019-01-12T13:02:07.260Z,73.89
2019-01-12T13:04:38.057Z,73.89
2019-01-12T13:07:10.261Z,74.11
2019-01-12T13:09:41.010Z,73.88
2019-01-12T13:12:13.275Z,73.91
2019-01-12T13:14:43.673Z,73.89
2019-01-12T13:17:15.871Z,73.80
2019-01-12T13:19:48.077Z,74.03
2019-01-12T13:22:20.280Z,74.18
2019-01-12T13:24:51.053Z,74.15
2019-01-12T13:27:23.123Z,73.97
2019-01-12T13:29:53.838Z,73.70
2019-01-12T13:32:26.071Z,73.72
2019-01-12T13:34:58.273Z,73.48
2019-01-12T13:37:29.019Z,73.36
2019-01-12T13:40:01.255Z,73.42
2019-01-12T13:42:32.054Z,73.49
2019-01-12T13:45:04.083Z,73.47
2019-01-12T13:47:36.280Z,73.69
2019-01-12T13:50:11.261Z,73.38
2019-01-12T13:52:42.030Z,73.31
2019-01-12T13:55:16.272Z,73.26
2019-01-12T13:57:48.122Z,73.66
2019-01-12T14:00:21.623Z,73.81
2019-01-12T14:02:53.939Z,73.86
2019-01-12T14:05:27.298Z,73.86
2019-01-12T14:07:59.613Z,73.81
2019-01-12T14:10:31.712Z,73.84
2019-01-12T14:13:03.859Z,73.85
2019-01-12T14:15:35.946Z,73.91
2019-01-12T14:18:08.301Z,73.65
2019-01-12T14:20:40.574Z,73.72
2019-01-12T14:23:13.415Z,73.77
2019-01-12T14:25:45.673Z,73.29
2019-01-12T14:28:19.065Z,73.12
2019-01-12T14:30:51.273Z,73.12
2019-01-12T14:33:22.032Z,73.15
2019-01-12T14:35:54.103Z,73.15
2019-01-12T14:38:26.280Z,73.02
2019-01-12T14:40:56.797Z,72.87
2019-01-12T14:43:28.921Z,72.83
2019-01-12T14:46:00.950Z,73.09
2019-01-12T14:48:33.188Z,72.99
2019-01-12T14:51:03.773Z,73.06
2019-01-12T14:53:36.117Z,72.93
2019-01-12T14:56:08.269Z,73.39
2019-01-12T14:58:38.655Z,73.78
2019-01-12T15:01:10.885Z,74.17
2019-01-12T15:03:43.130Z,74.48
2019-01-12T15:06:15.327Z,74.83
2019-01-12T15:08:47.468Z,75.45
2019-01-12T15:11:19.654Z,76.65
2019-01-12T15:13:51.778Z,76.75
2019-01-12T15:16:23.944Z,77.18
2019-01-12T15:18:55.946Z,77.18
2019-01-12T15:21:27.928Z,77.91
2019-01-12T15:24:00.285Z,78.18
2019-01-12T15:26:31.007Z,78.74
2019-01-12T15:29:03.263Z,78.74
2019-01-12T15:31:34.033Z,78.90
2019-01-12T15:34:06.394Z,78.93
2019-01-12T15:36:38.382Z,78.99
2019-01-12T15:39:10.671Z,78.99
2019-01-12T15:41:42.888Z,79.27
2019-01-12T15:44:15.123Z,79.61
2019-01-12T15:46:47.276Z,79.90
2019-01-12T15:49:19.272Z,79.94
2019-01-12T15:51:49.853Z,80.20
2019-01-12T15:54:28.269Z,80.04
2019-01-12T15:56:59.277Z,80.10
2019-01-12T15:59:29.868Z,79.91
2019-01-12T16:02:01.956Z,79.83
2019-01-12T16:04:34.010Z,80.40
2019-01-12T16:07:06.272Z,80.40
2019-01-12T16:09:37.044Z,80.40
2019-01-12T16:12:09.880Z,80.43
2019-01-12T16:14:41.946Z,80.61
2019-01-12T16:17:14.275Z,80.70
2019-01-12T16:19:44.872Z,80.73
2019-01-12T16:22:16.951Z,80.66
2019-01-12T16:24:49.269Z,80.50
2019-01-12T16:27:21.269Z,80.53
2019-01-12T16:29:52.072Z,80.53
2019-01-12T16:32:24.292Z,80.55
2019-01-12T16:34:55.056Z,80.42
2019-01-12T16:37:27.274Z,80.41
2019-01-12T16:39:57.713Z,80.43
2019-01-12T16:42:29.919Z,80.20
2019-01-12T16:45:01.929Z,80.22
2019-01-12T16:47:34.115Z,80.13
2019-01-12T16:50:05.284Z,79.86
2019-01-12T16:52:37.287Z,79.74
2019-01-12T16:55:09.275Z,79.42
2019-01-12T16:57:40.108Z,78.99
2019-01-12T17:00:18.286Z,78.99
2019-01-12T17:02:49.048Z,78.75
2019-01-12T17:05:21.279Z,78.63
2019-01-12T17:07:51.985Z,78.59
2019-01-12T17:10:24.376Z,78.59
2019-01-12T17:12:56.293Z,78.71
2019-01-12T17:15:27.075Z,79.02
2019-01-12T17:17:58.037Z,79.02
2019-01-12T17:20:31.632Z,78.94
2019-01-12T17:23:06.310Z,78.54
2019-01-12T17:25:38.615Z,78.60
2019-01-12T17:28:10.868Z,78.63
2019-01-12T17:30:42.895Z,78.66
2019-01-12T17:33:17.394Z,78.36
2019-01-12T17:35:49.768Z,78.40
2019-01-12T17:38:21.944Z,78.59
2019-01-12T17:40:54.272Z,78.46
2019-01-12T17:43:25.118Z,78.68
2019-01-12T17:45:57.284Z,78.84
2019-01-12T17:48:27.999Z,78.50
2019-01-12T17:51:00.277Z,78.63
2019-01-12T17:53:30.886Z,78.34
2019-01-12T17:56:03.289Z,78.08
2019-01-12T17:58:35.285Z,78.33
2019-01-12T18:01:07.264Z,78.31
2019-01-12T18:03:39.355Z,78.31
2019-01-12T18:06:10.065Z,78.25
2019-01-12T18:08:42.281Z,78.41
2019-01-12T18:11:12.870Z,78.75
2019-01-12T18:13:44.956Z,78.90
2019-01-12T18:16:17.099Z,78.90
2019-01-12T18:18:49.309Z,78.60
2019-01-12T18:21:20.047Z,78.65
2019-01-12T18:23:52.284Z,78.59
2019-01-12T18:26:24.302Z,78.97
2019-01-12T18:28:56.394Z,79.27
2019-01-12T18:31:28.692Z,80.19
2019-01-12T18:34:00.947Z,80.19
2019-01-12T18:36:33.281Z,80.77
2019-01-12T18:39:05.014Z,80.97
2019-01-12T18:41:37.283Z,80.51
2019-01-12T18:44:09.360Z,80.34
2019-01-12T18:46:41.655Z,80.21
2019-01-12T18:49:13.936Z,80.31
2019-01-12T18:51:46.239Z,79.99
2019-01-12T18:54:17.018Z,79.93
2019-01-12T18:56:49.070Z,79.60
2019-01-12T18:59:21.128Z,79.39
2019-01-12T19:01:52.067Z,79.07
2019-01-12T19:04:24.350Z,79.14
2019-01-12T19:06:56.678Z,78.61
2019-01-12T19:09:28.896Z,78.61
2019-01-12T19:12:01.284Z,78.63
2019-01-12T19:14:32.872Z,78.43
2019-01-12T19:17:05.272Z,78.43
2019-01-12T19:19:36.065Z,78.37
2019-01-12T19:22:08.283Z,78.14
2019-01-12T19:24:39.012Z,78.54
2019-01-12T19:27:11.288Z,78.45
2019-01-12T19:29:43.287Z,78.08
2019-01-12T19:32:15.302Z,78.08
2019-01-12T19:34:47.750Z,77.87
2019-01-12T19:37:20.107Z,77.74
2019-01-12T19:39:50.862Z,77.81
2019-01-12T19:42:22.938Z,77.81
2019-01-12T19:44:55.276Z,78.05
2019-01-12T19:47:25.882Z,78.28
2019-01-12T19:49:58.279Z,78.06
2019-01-12T19:52:29.282Z,78.05
2019-01-12T19:55:00.311Z,78.05
2019-01-12T19:57:32.353Z,77.78
2019-01-12T20:00:04.358Z,77.66
2019-01-12T20:02:36.659Z,77.92
2019-01-12T20:05:09.522Z,77.88
2019-01-12T20:07:41.785Z,77.39
2019-01-12T20:10:16.337Z,77.39
2019-01-12T20:12:48.766Z,77.30
2019-01-12T20:15:24.255Z,77.57
2019-01-12T20:17:57.611Z,77.57
2019-01-12T20:20:31.533Z,77.82
2019-01-12T20:23:04.682Z,78.26
2019-01-12T20:25:39.278Z,78.07
2019-01-12T20:28:16.009Z,77.77
2019-01-12T20:31:22.440Z,77.77
2019-01-12T20:34:28.081Z,77.75
2019-01-12T20:38:08.280Z,77.75
2019-01-12T20:41:09.861Z,77.89
2019-01-12T20:44:38.741Z,77.97
2019-01-12T20:48:00.252Z,78.19
2019-01-12T20:51:05.694Z,78.38
2019-01-12T20:54:10.876Z,78.53
2019-01-12T20:57:36.272Z,79.00
2019-01-12T21:00:31.246Z,79.12
2019-01-12T21:03:38.049Z,79.41
2019-01-12T21:06:43.098Z,79.46
2019-01-12T21:09:45.291Z,79.65
2019-01-12T21:13:04.841Z,79.78
2019-01-12T21:16:01.585Z,79.81
2019-01-12T21:18:33.686Z,79.61
2019-01-12T21:21:05.941Z,79.30
2019-01-12T21:23:38.272Z,79.54
2019-01-12T21:26:09.037Z,79.69
2019-01-12T21:28:41.290Z,79.84
2019-01-12T21:31:12.106Z,79.60
2019-01-12T21:33:42.860Z,79.77
2019-01-12T21:36:16.564Z,79.94
2019-01-12T21:38:49.944Z,79.75
2019-01-12T21:41:23.104Z,79.74
2019-01-12T21:43:54.048Z,79.86
2019-01-12T21:46:26.290Z,79.61
2019-01-12T21:48:58.404Z,79.54
2019-01-12T21:51:30.532Z,79.73
2019-01-12T21:54:02.890Z,79.87
2019-01-12T21:56:35.376Z,79.76
2019-01-12T21:59:08.101Z,79.92
2019-01-12T22:01:38.695Z,79.92
2019-01-12T22:04:10.941Z,79.72
2019-01-12T22:06:43.188Z,79.90
2019-01-12T22:09:14.552Z,79.72
2019-01-12T22:11:53.316Z,79.79
2019-01-12T22:14:25.632Z,79.79
2019-01-12T22:16:57.858Z,79.65
2019-01-12T22:19:29.938Z,79.73
2019-01-12T22:22:01.960Z,79.70
2019-01-12T22:24:34.310Z,79.87
2019-01-12T22:27:06.677Z,79.74
2019-01-12T22:29:39.106Z,79.80
2019-01-12T22:32:11.265Z,79.67
2019-01-12T22:34:42.056Z,79.64
2019-01-12T22:37:14.321Z,79.43
2019-01-12T22:39:46.404Z,79.38
2019-01-12T22:42:18.389Z,79.35
2019-01-12T22:44:50.660Z,79.07
2019-01-12T22:47:22.923Z,79.07
2019-01-12T22:49:55.109Z,79.11
2019-01-12T22:52:26.019Z,78.94
2019-01-12T22:54:58.228Z,79.09
2019-01-12T23:00:20.938Z,79.58
2019-01-12T23:02:53.271Z,79.58
2019-01-12T23:05:24.272Z,79.65
2019-01-12T23:07:55.043Z,79.76
2019-01-12T23:10:27.398Z,79.82
2019-01-12T23:12:59.654Z,79.99
2019-01-12T23:15:31.939Z,79.99
2019-01-12T23:18:05.164Z,80.00
2019-01-12T23:20:36.273Z,80.41
2019-01-12T23:23:07.107Z,80.41
2019-01-12T23:25:39.288Z,80.54
2019-01-12T23:28:10.272Z,80.44
2019-01-12T23:30:41.108Z,80.54
2019-01-12T23:33:13.395Z,80.51
2019-01-12T23:35:46.004Z,80.52
2019-01-12T23:38:18.264Z,80.83
2019-01-12T23:43:10.938Z,80.94
2019-01-12T23:45:43.273Z,80.95
2019-01-12T23:48:14.027Z,81.06
2019-01-12T23:50:46.278Z,80.98
2019-01-12T23:53:17.018Z,80.84
2019-01-12T23:55:49.281Z,80.74
2019-01-12T23:58:21.347Z,80.98
